»·PEaware :: DAL2189 KSLC-KPDX

DAL2189 :: KSLC-KPDX

FLIGHT INFORMATION

Flight Status: Arrived
Operator:
Delta Air Lines
More flights by this operator :: More flights under this callsign
Pilot: Joe P. (13940)
Aircraft: MCDONNELL-DOUGLAS MD-82
(MD82)
More flights by this aircraft type
Origin: KSLC Salt Lake City Intl
United States
Destination: KPDX Portland Intl
United States
More flights between these airports :: More routes between these airports
Route: TWF4 TWF J15 BOI J163 BKE JOTBA HHOOD4
File this flight plan on PilotEdge
Remarks: SEL / ABCD KSEA -PBN / A1B1L1 NAV / RNVD5E10A5 DOF / 180428 REG / N904DL EET / KZSE0052 RVR / 300 PER / C
Altitude:
(Current/Filed)
240ft
Speed:
(Current/Filed)
477kts
Departed: 28-Apr-18 06:39 AM
Arrived: 28-Apr-18 08:13 AM
Distance/Time
Traveled:
546nm/1:34
Distance/Time
To Go:
Arrived

Flight Plot

Page will automatically refresh every two minutes.

Flight plan parsing failed; only flown route is shown


Map Options




Map Legend


Flown Route
Filed Route
Departure Airport
Arrival Airport
Navaid (VOR, NDB)
Fix

Horizontal Profiles

Position Reports

Time Latitude Longitude Heading Altitude Ground
Speed
28-Apr-18 05:25 40.785586 -111.978056 231 4236ft 0kts
28-Apr-18 05:26 40.785586 -111.978056 231 4236ft 0kts
28-Apr-18 05:27 40.785586 -111.978056 231 4236ft 0kts
28-Apr-18 05:28 40.785586 -111.978056 231 4236ft 0kts
28-Apr-18 05:29 40.785586 -111.978056 231 4236ft 0kts
28-Apr-18 05:30 40.785586 -111.978056 231 4236ft 0kts
28-Apr-18 05:31 40.785586 -111.978056 231 4236ft 0kts
28-Apr-18 05:32 40.785586 -111.978056 231 4236ft 0kts
28-Apr-18 05:33 40.785586 -111.978056 231 4236ft 0kts
28-Apr-18 05:34 40.785586 -111.978056 231 4236ft 0kts
28-Apr-18 05:35 40.785586 -111.978056 231 4236ft 0kts
28-Apr-18 05:36 40.785586 -111.978056 231 4236ft 0kts
28-Apr-18 05:37 40.785586 -111.978056 231 4236ft 0kts
28-Apr-18 05:38 40.785586 -111.978056 231 4236ft 0kts
28-Apr-18 05:39 40.785586 -111.978056 231 4236ft 0kts
28-Apr-18 05:40 40.785586 -111.978056 231 4236ft 0kts
28-Apr-18 05:41 40.785586 -111.978056 231 4236ft 0kts
28-Apr-18 05:42 40.785586 -111.978056 231 4236ft 0kts
28-Apr-18 05:43 40.785586 -111.978056 231 4236ft 0kts
28-Apr-18 05:44 40.785586 -111.978056 231 4236ft 0kts
28-Apr-18 05:45 40.785586 -111.978056 231 4236ft 0kts
28-Apr-18 05:46 40.785586 -111.978056 231 4236ft 0kts
28-Apr-18 05:47 40.785586 -111.978056 231 4236ft 0kts
28-Apr-18 05:48 40.785586 -111.978056 231 4236ft 0kts
28-Apr-18 05:49 40.785586 -111.978056 231 4236ft 0kts
28-Apr-18 05:50 40.785586 -111.978056 231 4236ft 0kts
28-Apr-18 05:51 40.785586 -111.978056 231 4236ft 0kts
28-Apr-18 05:52 40.785586 -111.978056 231 4236ft 0kts
28-Apr-18 05:53 40.785586 -111.978056 231 4236ft 0kts
28-Apr-18 05:54 40.785586 -111.978056 231 4236ft 0kts
28-Apr-18 05:55 40.785586 -111.978056 231 4236ft 0kts
28-Apr-18 05:56 40.785586 -111.978056 231 4236ft 0kts
28-Apr-18 05:57 40.785586 -111.978056 231 4236ft 0kts
28-Apr-18 05:58 40.785586 -111.978056 231 4236ft 0kts
28-Apr-18 05:59 40.785586 -111.978056 231 4236ft 0kts
28-Apr-18 06:00 40.785586 -111.978056 231 4236ft 0kts
28-Apr-18 06:01 40.785586 -111.978056 231 4236ft 0kts
28-Apr-18 06:02 40.785586 -111.978056 231 4236ft 0kts
28-Apr-18 06:03 40.785586 -111.978056 231 4236ft 0kts
28-Apr-18 06:04 40.785586 -111.978056 231 4236ft 0kts
28-Apr-18 06:05 40.785586 -111.978056 231 4236ft 0kts
28-Apr-18 06:06 40.785586 -111.978056 231 4236ft 0kts
28-Apr-18 06:07 40.785586 -111.978056 231 4236ft 0kts
28-Apr-18 06:08 40.785586 -111.978056 231 4236ft 0kts
28-Apr-18 06:09 40.785586 -111.978056 231 4236ft 0kts
28-Apr-18 06:10 40.785586 -111.978056 231 4236ft 0kts
28-Apr-18 06:11 40.785586 -111.978056 231 4236ft 0kts
28-Apr-18 06:12 40.785602 -111.978029 231 4236ft 1kts
28-Apr-18 06:13 40.785898 -111.977139 266 4236ft 2kts
28-Apr-18 06:14 40.785856 -111.976638 285 4236ft 0kts
28-Apr-18 06:15 40.785856 -111.976638 285 4236ft 0kts
28-Apr-18 06:16 40.785856 -111.976638 285 4236ft 0kts
28-Apr-18 06:17 40.785856 -111.976638 285 4236ft 0kts
28-Apr-18 06:18 40.785856 -111.976638 285 4236ft 0kts
28-Apr-18 06:19 40.785856 -111.976638 285 4236ft 0kts
28-Apr-18 06:20 40.785856 -111.976638 285 4236ft 0kts
28-Apr-18 06:21 40.785856 -111.976638 285 4236ft 0kts
28-Apr-18 06:22 40.785856 -111.976638 285 4236ft 0kts
28-Apr-18 06:23 40.785856 -111.976639 285 4236ft 0kts
28-Apr-18 06:24 40.785856 -111.976639 285 4236ft 0kts
28-Apr-18 06:25 40.785856 -111.976639 285 4236ft 0kts
28-Apr-18 06:26 40.785856 -111.976639 285 4236ft 0kts
28-Apr-18 06:27 40.785868 -111.976693 285 4236ft 0kts
28-Apr-18 06:28 40.787232 -111.976990 355 4236ft 10kts
28-Apr-18 06:29 40.791870 -111.977396 355 4236ft 22kts
28-Apr-18 06:30 40.797953 -111.978071 354 4236ft 23kts
28-Apr-18 06:31 40.803411 -111.978686 353 4236ft 23kts
28-Apr-18 06:32 40.807405 -111.978572 60 4236ft 11kts
28-Apr-18 06:33 40.806290 -111.976742 178 4236ft 0kts
28-Apr-18 06:34 40.806096 -111.976733 177 4236ft 9kts
28-Apr-18 06:35 40.804102 -111.976528 167 4236ft 0kts
28-Apr-18 06:36 40.804100 -111.976527 167 4236ft 0kts
28-Apr-18 06:37 40.804048 -111.976522 173 4236ft 0kts
28-Apr-18 06:38 40.794883 -111.975445 172 4236ft 108kts
28-Apr-18 06:39 40.749726 -111.971516 172 5616ft 181kts
28-Apr-18 06:40 40.701761 -111.989587 253 7156ft 233kts
28-Apr-18 06:41 40.745531 -112.065933 311 8716ft 295kts
28-Apr-18 06:42 40.782861 -112.161460 287 11309ft 295kts
28-Apr-18 06:43 40.815610 -112.262402 289 13302ft 303kts
28-Apr-18 06:44 40.878777 -112.337046 329 15021ft 326kts
28-Apr-18 06:45 40.963923 -112.384583 336 16696ft 336kts
28-Apr-18 06:46 41.053991 -112.424109 339 18283ft 345kts
28-Apr-18 06:47 41.139673 -112.480303 321 19802ft 346kts
28-Apr-18 06:48 41.217824 -112.557080 316 21234ft 351kts
28-Apr-18 06:49 41.293799 -112.640534 310 22397ft 361kts
28-Apr-18 06:50 41.364895 -112.746470 307 22854ft 393kts
28-Apr-18 06:51 41.439484 -112.858022 306 24174ft 407kts
28-Apr-18 06:52 41.512960 -112.970735 306 26148ft 398kts
28-Apr-18 06:53 41.584655 -113.080554 306 27860ft 394kts
28-Apr-18 06:54 41.660230 -113.196710 306 27893ft 431kts
28-Apr-18 06:55 41.739607 -113.319819 306 27905ft 444kts
28-Apr-18 06:56 41.821886 -113.447409 306 27909ft 451kts
28-Apr-18 06:57 41.903897 -113.575350 306 27912ft 454kts
28-Apr-18 06:58 41.985996 -113.703778 306 27916ft 453kts
28-Apr-18 06:59 42.068456 -113.832861 306 27925ft 454kts
28-Apr-18 07:00 42.150305 -113.962189 305 27931ft 454kts
28-Apr-18 07:01 42.232052 -114.091750 305 27938ft 454kts
28-Apr-18 07:02 42.313994 -114.222246 305 27952ft 454kts
28-Apr-18 07:03 42.395568 -114.352814 305 27960ft 455kts
28-Apr-18 07:04 42.477265 -114.484041 305 27964ft 457kts
28-Apr-18 07:05 42.560954 -114.614576 306 27961ft 459kts
28-Apr-18 07:06 42.645100 -114.744654 306 27959ft 459kts
28-Apr-18 07:07 42.729124 -114.875474 306 27957ft 460kts
28-Apr-18 07:08 42.813361 -115.007389 306 27950ft 461kts
28-Apr-18 07:09 42.897196 -115.139529 306 27948ft 462kts
28-Apr-18 07:10 42.981493 -115.272607 305 27946ft 463kts
28-Apr-18 07:11 43.065433 -115.405916 305 27945ft 464kts
28-Apr-18 07:12 43.149631 -115.539618 305 27948ft 464kts
28-Apr-18 07:13 43.234085 -115.674419 305 27947ft 465kts
28-Apr-18 07:14 43.318112 -115.809420 305 27948ft 466kts
28-Apr-18 07:15 43.402109 -115.945313 305 27949ft 467kts
28-Apr-18 07:16 43.486778 -116.082318 305 27953ft 472kts
28-Apr-18 07:17 43.573260 -116.217773 310 27957ft 475kts
28-Apr-18 07:18 43.672213 -116.338643 315 27954ft 476kts
28-Apr-18 07:19 43.772488 -116.459564 313 27951ft 478kts
28-Apr-18 07:20 43.871230 -116.582043 313 27951ft 478kts
28-Apr-18 07:21 43.970661 -116.705240 313 27941ft 478kts
28-Apr-18 07:22 44.070193 -116.828738 313 27937ft 483kts
28-Apr-18 07:23 44.170178 -116.953759 313 27935ft 483kts
28-Apr-18 07:24 44.270909 -117.079603 313 27935ft 486kts
28-Apr-18 07:25 44.371306 -117.206398 313 27936ft 488kts
28-Apr-18 07:26 44.471829 -117.333916 313 27942ft 489kts
28-Apr-18 07:27 44.573072 -117.462462 313 27947ft 490kts
28-Apr-18 07:28 44.673830 -117.591329 313 27951ft 491kts
28-Apr-18 07:29 44.774979 -117.721140 312 27954ft 491kts
28-Apr-18 07:30 44.846310 -117.876161 284 27960ft 471kts
28-Apr-18 07:31 44.876724 -118.051589 269 27965ft 459kts
28-Apr-18 07:32 44.896454 -118.230633 271 27971ft 466kts
28-Apr-18 07:33 44.920595 -118.410498 272 27978ft 468kts
28-Apr-18 07:34 44.943375 -118.590462 271 27979ft 467kts
28-Apr-18 07:35 44.965578 -118.771505 271 27979ft 468kts
28-Apr-18 07:36 44.988119 -118.952225 271 27981ft 468kts
28-Apr-18 07:37 45.008857 -119.133809 270 27985ft 466kts
28-Apr-18 07:38 45.029777 -119.315329 271 27983ft 469kts
28-Apr-18 07:39 45.051565 -119.497128 270 27991ft 470kts
28-Apr-18 07:40 45.073143 -119.680193 270 27992ft 470kts
28-Apr-18 07:41 45.094038 -119.863042 270 27992ft 471kts
28-Apr-18 07:42 45.114931 -120.046744 271 27995ft 472kts
28-Apr-18 07:43 45.133719 -120.229930 269 27997ft 469kts
28-Apr-18 07:44 45.153481 -120.413044 272 27999ft 473kts
28-Apr-18 07:45 45.190659 -120.593347 290 27999ft 486kts
28-Apr-18 07:46 45.259330 -120.759386 294 27997ft 487kts
28-Apr-18 07:47 45.322769 -120.928142 293 27999ft 484kts
28-Apr-18 07:48 45.387407 -121.096318 293 27998ft 483kts
28-Apr-18 07:49 45.441679 -121.269329 284 26491ft 480kts
28-Apr-18 07:50 45.477080 -121.447584 280 23948ft 431kts
28-Apr-18 07:51 45.507081 -121.604197 282 22433ft 395kts
28-Apr-18 07:52 45.531202 -121.752581 273 20437ft 374kts
28-Apr-18 07:53 45.536741 -121.899127 270 17698ft 357kts
28-Apr-18 07:54 45.551927 -122.032807 287 14704ft 331kts
28-Apr-18 07:55 45.579670 -122.152805 285 11707ft 307kts
28-Apr-18 07:56 45.603199 -122.266303 285 8788ft 286kts
28-Apr-18 07:57 45.624857 -122.370152 285 6580ft 255kts
28-Apr-18 07:58 45.646515 -122.462006 294 5459ft 244kts
28-Apr-18 07:59 45.678853 -122.550406 296 3711ft 254kts
28-Apr-18 08:00 45.710071 -122.635314 296 2989ft 217kts
28-Apr-18 08:01 45.736316 -122.705794 296 3036ft 195kts
28-Apr-18 08:02 45.761969 -122.774142 296 2990ft 195kts
28-Apr-18 08:03 45.787791 -122.842494 296 2990ft 195kts
28-Apr-18 08:04 45.788772 -122.908686 213 3015ft 190kts
28-Apr-18 08:05 45.737508 -122.910285 151 2980ft 191kts
28-Apr-18 08:06 45.693982 -122.865798 125 2996ft 193kts
28-Apr-18 08:07 45.675920 -122.797582 119 2971ft 165kts
28-Apr-18 08:08 45.652936 -122.745085 121 2241ft 151kts
28-Apr-18 08:09 45.632549 -122.692914 118 1535ft 148kts
28-Apr-18 08:10 45.612809 -122.641893 118 766ft 146kts
28-Apr-18 08:11 45.593181 -122.591550 118 30ft 140kts
28-Apr-18 08:12 45.586579 -122.576290 203 27ft 1kts
28-Apr-18 08:13 45.586514 -122.576345 212 27ft 0kts
28-Apr-18 08:14 45.586417 -122.577186 291 27ft 4kts
28-Apr-18 08:15 45.588511 -122.582705 299 27ft 17kts
28-Apr-18 08:16 45.590255 -122.588100 268 27ft 14kts
28-Apr-18 08:17 45.591468 -122.593054 270 27ft 7kts
28-Apr-18 08:18 45.591080 -122.593598 213 27ft 0kts
28-Apr-18 08:19 45.591080 -122.593598 213 27ft 0kts
28-Apr-18 08:20 45.591080 -122.593598 213 27ft 0kts
28-Apr-18 08:21 45.591080 -122.593598 213 27ft 0kts
28-Apr-18 08:22 45.591080 -122.593598 213 27ft 0kts
28-Apr-18 08:23 45.591080 -122.593598 213 27ft 0kts
28-Apr-18 08:24 45.591080 -122.593598 213 27ft 0kts
28-Apr-18 08:25 45.591080 -122.593598 213 27ft 0kts
28-Apr-18 08:26 45.591080 -122.593598 213 27ft 0kts

Navigation Log

Ident Type
Flight plan parsing failed, navigation log unavailable